createdAt,value
2022-11-04T00:00:11.719Z,73.48
2022-11-04T00:02:38.280Z,74.40
2022-11-04T00:05:05.213Z,74.50
2022-11-04T00:07:50.109Z,75.47
2022-11-04T00:10:16.655Z,75.66
2022-11-04T00:12:43.073Z,74.65
2022-11-04T00:15:28.294Z,75.06
2022-11-04T00:17:54.723Z,74.83
2022-11-04T00:20:39.689Z,74.86
2022-11-04T00:23:24.821Z,74.30
2022-11-04T00:26:10.205Z,73.54
2022-11-04T00:28:42.694Z,73.50
2022-11-04T00:31:28.568Z,72.59
2022-11-04T00:33:58.531Z,72.29
2022-11-04T00:36:26.050Z,72.69
2022-11-04T00:38:53.364Z,73.20
2022-11-04T00:41:26.068Z,72.97
2022-11-04T00:43:58.144Z,73.04
2022-11-04T00:46:25.147Z,72.65
2022-11-04T00:48:51.624Z,73.18
2022-11-04T00:51:18.114Z,73.36
2022-11-04T00:53:44.561Z,73.47
2022-11-04T00:56:11.031Z,73.12
2022-11-04T00:58:37.496Z,73.42
2022-11-04T01:01:09.782Z,73.65
2022-11-04T01:03:36.572Z,73.95
2022-11-04T01:06:03.255Z,73.48
2022-11-04T01:08:29.796Z,73.77
2022-11-04T01:10:56.310Z,73.23
2022-11-04T01:13:22.760Z,73.22
2022-11-04T01:15:49.217Z,73.13
2022-11-04T01:18:15.661Z,73.12
2022-11-04T01:20:42.094Z,73.37
2022-11-04T01:23:08.579Z,73.63
2022-11-04T01:25:38.894Z,73.46
2022-11-04T01:28:05.505Z,73.31
2022-11-04T01:30:32.071Z,73.63
2022-11-04T01:32:58.549Z,73.39
2022-11-04T01:35:25.056Z,73.22
2022-11-04T01:37:51.494Z,72.80
2022-11-04T01:40:17.953Z,72.73
2022-11-04T01:42:44.428Z,72.71
2022-11-04T01:45:16.895Z,72.74
2022-11-04T01:48:12.627Z,73.10
2022-11-04T01:50:39.597Z,73.73
2022-11-04T01:53:15.001Z,73.43
2022-11-04T01:55:51.564Z,73.59
2022-11-04T01:58:24.754Z,72.93
2022-11-04T02:00:51.614Z,73.36
2022-11-04T02:03:30.800Z,73.09
2022-11-04T02:05:58.343Z,73.01
2022-11-04T02:08:25.757Z,72.82
2022-11-04T02:11:03.667Z,72.29
2022-11-04T02:13:36.127Z,72.64
2022-11-04T02:16:22.375Z,72.69
2022-11-04T02:19:19.977Z,73.33
2022-11-04T02:22:30.584Z,73.37
2022-11-04T02:25:29.766Z,73.29
2022-11-04T02:28:20.599Z,73.08
2022-11-04T02:30:56.676Z,73.10
2022-11-04T02:33:38.092Z,73.12
2022-11-04T02:36:34.362Z,73.25
2022-11-04T02:39:27.833Z,73.46
2022-11-04T02:42:11.409Z,73.38
2022-11-04T02:45:08.438Z,72.93
2022-11-04T02:47:43.421Z,72.92
2022-11-04T02:50:52.462Z,72.85
2022-11-04T02:53:36.677Z,73.42
2022-11-04T02:56:07.208Z,73.47
2022-11-04T02:58:41.717Z,73.18
2022-11-04T03:01:16.326Z,73.34
2022-11-04T03:03:50.976Z,73.37
2022-11-04T03:06:23.449Z,73.83
2022-11-04T03:08:54.278Z,73.56
2022-11-04T03:11:25.054Z,73.53
2022-11-04T03:14:05.636Z,73.11
2022-11-04T03:16:40.532Z,73.30
2022-11-04T03:19:31.169Z,73.50
2022-11-04T03:22:14.925Z,73.49
2022-11-04T03:24:45.766Z,73.48
2022-11-04T03:27:43.225Z,72.92
2022-11-04T03:33:16.310Z,73.05
2022-11-04T03:35:42.769Z,74.06
2022-11-04T03:38:09.306Z,73.87
2022-11-04T03:40:36.009Z,73.64
2022-11-04T03:43:14.908Z,73.61
2022-11-04T03:45:43.572Z,73.30
2022-11-04T03:48:10.219Z,73.24
2022-11-04T03:50:43.320Z,73.09
2022-11-04T03:53:14.211Z,73.33
2022-11-04T03:56:02.810Z,72.87
2022-11-04T03:59:16.253Z,72.76
2022-11-04T04:02:15.215Z,73.04
2022-11-04T04:04:58.031Z,73.35
2022-11-04T04:07:49.653Z,72.63
2022-11-04T04:10:42.204Z,72.57
2022-11-04T04:13:25.034Z,72.18
2022-11-04T04:16:10.021Z,72.41
2022-11-04T04:18:59.339Z,72.31
2022-11-04T04:21:43.669Z,72.08
2022-11-04T04:24:32.914Z,72.04
2022-11-04T04:27:19.738Z,72.17
2022-11-04T04:29:48.909Z,72.40
2022-11-04T04:32:17.116Z,72.25
2022-11-04T04:34:44.312Z,72.35
2022-11-04T04:37:26.679Z,72.44
2022-11-04T04:40:20.839Z,72.35
2022-11-04T04:43:12.045Z,71.93
2022-11-04T04:45:43.050Z,72.14
2022-11-04T04:48:13.663Z,71.88
2022-11-04T04:50:51.048Z,71.95
2022-11-04T04:53:17.548Z,71.73
2022-11-04T04:55:43.998Z,72.22
2022-11-04T04:58:10.517Z,71.79
2022-11-04T05:00:37.047Z,71.72
2022-11-04T05:03:03.558Z,71.70
2022-11-04T05:05:29.983Z,71.66
2022-11-04T05:08:03.428Z,72.27
2022-11-04T05:10:29.858Z,72.75
2022-11-04T05:13:14.994Z,72.78
2022-11-04T05:15:41.469Z,73.43
2022-11-04T05:18:08.205Z,73.01
2022-11-04T05:20:38.305Z,72.43
2022-11-04T05:23:04.829Z,72.23
2022-11-04T05:25:31.262Z,72.63
2022-11-04T05:28:02.567Z,72.36
2022-11-04T05:30:29.553Z,72.82
2022-11-04T05:32:59.845Z,73.06
2022-11-04T05:35:30.097Z,73.53
2022-11-04T05:37:57.009Z,73.48
2022-11-04T05:40:25.050Z,73.13
2022-11-04T05:42:51.557Z,73.26
2022-11-04T05:45:18.361Z,73.53
2022-11-04T05:47:45.844Z,73.08
2022-11-04T05:50:12.285Z,72.49
2022-11-04T05:52:38.842Z,73.05
2022-11-04T05:55:05.935Z,72.69
2022-11-04T05:57:32.387Z,72.36
2022-11-04T05:59:58.813Z,72.86
2022-11-04T06:02:25.355Z,72.76
2022-11-04T06:04:51.886Z,72.15
2022-11-04T06:07:18.333Z,72.66
2022-11-04T06:09:44.807Z,72.41
2022-11-04T06:12:15.233Z,72.97
2022-11-04T06:14:45.154Z,72.22
2022-11-04T06:17:17.875Z,72.01
2022-11-04T06:19:44.971Z,72.11
2022-11-04T06:22:14.577Z,72.39
2022-11-04T06:24:41.361Z,73.19
2022-11-04T06:27:08.901Z,73.49
2022-11-04T06:29:39.877Z,73.82
2022-11-04T06:32:08.673Z,73.75
2022-11-04T06:34:35.187Z,73.26
2022-11-04T06:37:01.820Z,72.44
2022-11-04T06:39:28.318Z,72.13
2022-11-04T06:41:56.625Z,71.90
2022-11-04T06:44:25.940Z,71.93
2022-11-04T06:46:52.430Z,72.12
2022-11-04T06:49:22.924Z,72.64
2022-11-04T06:51:50.011Z,72.63
2022-11-04T06:54:17.705Z,72.35
2022-11-04T06:56:44.934Z,72.59
2022-11-04T06:59:18.314Z,72.36
2022-11-04T07:01:45.919Z,72.75
2022-11-04T07:04:12.761Z,72.36
2022-11-04T07:06:44.237Z,72.19
2022-11-04T07:09:14.433Z,72.61
2022-11-04T07:11:42.911Z,72.25
2022-11-04T07:14:09.965Z,72.36
2022-11-04T07:16:37.247Z,72.87
2022-11-04T07:19:04.951Z,72.80
2022-11-04T07:21:32.069Z,72.72
2022-11-04T07:23:58.796Z,72.18
2022-11-04T07:26:25.279Z,71.73
2022-11-04T07:28:51.907Z,71.94
2022-11-04T07:31:18.815Z,71.87
2022-11-04T07:33:49.794Z,71.76
2022-11-04T07:36:17.233Z,71.78
2022-11-04T07:38:43.947Z,71.74
2022-11-04T07:41:10.956Z,71.99
2022-11-04T07:43:37.400Z,71.96
2022-11-04T07:46:08.846Z,72.38
2022-11-04T07:48:36.848Z,72.40
2022-11-04T07:51:06.784Z,72.01
2022-11-04T07:53:34.112Z,72.37
2022-11-04T07:56:05.702Z,72.64
2022-11-04T07:58:32.539Z,72.75
2022-11-04T08:01:02.040Z,72.51
2022-11-04T08:03:28.843Z,71.79
2022-11-04T08:06:00.279Z,72.35
2022-11-04T08:08:28.147Z,73.17
2022-11-04T08:11:00.248Z,73.00
2022-11-04T08:13:33.317Z,72.81
2022-11-04T08:16:24.178Z,73.37
2022-11-04T08:18:52.776Z,73.11
2022-11-04T08:21:21.400Z,72.48
2022-11-04T08:23:48.126Z,72.52
2022-11-04T08:26:20.139Z,72.25
2022-11-04T08:28:47.625Z,72.68
2022-11-04T08:31:25.213Z,72.91
2022-11-04T08:33:53.204Z,72.95
2022-11-04T08:36:28.537Z,72.80
2022-11-04T08:38:56.311Z,73.29
2022-11-04T08:41:28.962Z,72.99
2022-11-04T08:43:57.195Z,73.02
2022-11-04T08:46:23.656Z,73.15
2022-11-04T08:48:50.125Z,72.75
2022-11-04T08:51:22.922Z,72.82
2022-11-04T08:53:50.188Z,73.33
2022-11-04T08:56:30.625Z,73.25
2022-11-04T08:59:00.011Z,73.69
2022-11-04T09:01:34.241Z,73.63
2022-11-04T09:04:03.045Z,73.31
2022-11-04T09:06:34.408Z,73.03
2022-11-04T09:09:04.355Z,72.38
2022-11-04T09:11:34.699Z,72.47
2022-11-04T09:14:02.421Z,72.01
2022-11-04T09:16:31.645Z,72.01
2022-11-04T09:18:58.563Z,71.47
2022-11-04T09:21:27.029Z,71.62
2022-11-04T09:23:54.350Z,71.72
2022-11-04T09:26:23.563Z,71.52
2022-11-04T09:28:58.318Z,71.64
2022-11-04T09:31:28.750Z,71.24
2022-11-04T09:33:56.390Z,71.06
2022-11-04T09:36:23.680Z,71.03
2022-11-04T09:38:50.314Z,70.96
2022-11-04T09:41:28.609Z,71.22
2022-11-04T09:44:25.237Z,70.72
2022-11-04T09:46:59.924Z,70.95
2022-11-04T09:49:34.142Z,70.83
2022-11-04T09:52:08.454Z,70.59
2022-11-04T09:54:58.172Z,70.76
2022-11-04T09:57:25.213Z,70.55
2022-11-04T09:59:53.084Z,70.11
2022-11-04T10:02:59.681Z,69.62
2022-11-04T10:06:08.526Z,70.01
2022-11-04T10:08:56.251Z,69.93
2022-11-04T10:12:05.719Z,69.55
2022-11-04T10:15:19.984Z,69.92
2022-11-04T10:18:13.595Z,70.46
2022-11-04T10:21:32.261Z,70.06
2022-11-04T10:24:29.581Z,70.61
2022-11-04T10:27:26.799Z,69.88
2022-11-04T10:30:06.585Z,69.87
2022-11-04T10:32:54.245Z,69.79
2022-11-04T10:35:36.662Z,69.38
2022-11-04T10:38:37.979Z,68.30
2022-11-04T10:41:39.656Z,68.34
2022-11-04T10:44:22.129Z,67.85
2022-11-04T10:47:24.342Z,67.00
2022-11-04T10:50:31.863Z,67.47
2022-11-04T10:53:10.698Z,67.66
2022-11-04T10:56:16.863Z,67.33
2022-11-04T10:58:47.221Z,67.56
2022-11-04T11:01:34.399Z,66.59
2022-11-04T11:04:06.753Z,66.58
2022-11-04T11:06:36.571Z,66.62
2022-11-04T11:09:28.504Z,66.38
2022-11-04T11:12:00.758Z,65.99
2022-11-04T11:14:30.472Z,65.36
2022-11-04T11:17:18.272Z,65.36
2022-11-04T11:20:22.911Z,65.74
2022-11-04T11:22:52.071Z,66.59
2022-11-04T11:25:21.996Z,66.01
2022-11-04T11:28:02.849Z,65.99
2022-11-04T11:30:58.932Z,65.42
2022-11-04T11:33:31.362Z,65.48
2022-11-04T11:36:01.875Z,65.38
2022-11-04T11:38:32.173Z,65.48
2022-11-04T11:41:28.201Z,65.50
2022-11-04T11:43:58.601Z,65.48
2022-11-04T11:46:33.140Z,65.19
2022-11-04T11:49:03.388Z,65.48
2022-11-04T11:51:38.893Z,65.23
2022-11-04T11:54:33.235Z,65.31
2022-11-04T11:57:16.024Z,65.46
2022-11-04T12:02:55.731Z,66.79
2022-11-04T12:11:51.764Z,68.50
2022-11-04T12:14:49.223Z,66.67
2022-11-04T12:17:42.953Z,66.85
2022-11-04T12:20:30.569Z,66.67
2022-11-04T12:23:13.863Z,65.32
2022-11-04T12:26:04.055Z,64.54
2022-11-04T12:29:01.011Z,65.00
2022-11-04T12:31:30.122Z,65.35
2022-11-04T12:34:56.951Z,63.73
2022-11-04T12:37:45.674Z,64.91
2022-11-04T12:40:27.483Z,64.16
2022-11-04T12:43:17.540Z,63.33
2022-11-04T12:46:53.979Z,63.53
2022-11-04T12:49:46.759Z,62.84
2022-11-04T12:52:39.281Z,63.29
2022-11-04T12:55:55.298Z,62.81
2022-11-04T12:58:33.773Z,63.39
2022-11-04T13:01:14.145Z,63.26
2022-11-04T13:04:21.886Z,62.68
2022-11-04T13:07:04.881Z,62.41
2022-11-04T13:10:06.930Z,60.86
2022-11-04T13:12:41.490Z,62.47
2022-11-04T13:15:19.912Z,62.28
2022-11-04T13:17:52.315Z,62.80
2022-11-04T13:20:50.599Z,62.52
2022-11-04T13:23:28.689Z,62.62
2022-11-04T13:25:56.394Z,61.98
2022-11-04T13:28:23.827Z,61.94
2022-11-04T13:31:06.715Z,61.79
2022-11-04T13:34:01.552Z,61.90
2022-11-04T13:37:05.684Z,62.14
2022-11-04T13:39:44.665Z,62.66
2022-11-04T13:42:42.128Z,62.41
2022-11-04T13:45:16.874Z,63.02
2022-11-04T13:47:58.777Z,62.60
2022-11-04T13:50:39.407Z,62.28
2022-11-04T13:53:10.657Z,62.95
2022-11-04T13:55:50.416Z,63.44
2022-11-04T13:58:27.653Z,62.97
2022-11-04T14:01:14.300Z,61.86
2022-11-04T14:04:00.897Z,62.34
2022-11-04T14:06:54.601Z,62.57
2022-11-04T14:09:36.618Z,62.96
2022-11-04T14:12:08.937Z,62.82
2022-11-04T14:14:36.946Z,63.12
2022-11-04T14:17:07.134Z,63.59
2022-11-04T14:19:57.639Z,63.36
2022-11-04T14:22:35.361Z,64.17
2022-11-04T14:25:22.410Z,64.69
2022-11-04T14:27:57.949Z,65.55
2022-11-04T14:30:50.126Z,64.96
2022-11-04T14:33:51.422Z,64.36
2022-11-04T14:36:20.796Z,64.64
2022-11-04T14:39:10.310Z,64.89
2022-11-04T14:41:39.690Z,65.57
2022-11-04T14:44:21.267Z,65.47
2022-11-04T14:46:54.786Z,66.24
2022-11-04T14:49:45.673Z,65.84
2022-11-04T14:52:27.825Z,65.08
2022-11-04T14:55:17.055Z,65.46
2022-11-04T14:57:47.955Z,66.21
2022-11-04T15:00:24.545Z,66.03
2022-11-04T15:03:10.386Z,66.80
2022-11-04T15:05:50.722Z,66.77
2022-11-04T15:08:29.071Z,66.29
2022-11-04T15:11:16.528Z,66.53
2022-11-04T15:13:43.503Z,66.76
2022-11-04T15:16:18.862Z,66.98
2022-11-04T15:18:46.505Z,66.54
2022-11-04T15:21:14.026Z,66.44
2022-11-04T15:23:50.963Z,66.59
2022-11-04T15:26:32.178Z,66.50
2022-11-04T15:29:03.450Z,66.87
2022-11-04T15:31:32.623Z,66.96
2022-11-04T15:34:04.070Z,66.99
2022-11-04T15:36:39.827Z,67.11
2022-11-04T15:39:29.610Z,67.48
2022-11-04T15:42:21.118Z,67.84
2022-11-04T15:44:53.864Z,68.39
2022-11-04T15:47:25.796Z,68.91
2022-11-04T15:50:01.014Z,68.44
2022-11-04T15:52:29.938Z,68.23
2022-11-04T15:54:59.894Z,67.75
2022-11-04T15:57:39.739Z,67.90
2022-11-04T16:00:25.791Z,68.22
2022-11-04T16:02:57.195Z,68.69
2022-11-04T16:05:26.037Z,69.39
2022-11-04T16:07:56.426Z,69.95
2022-11-04T16:10:31.999Z,69.71
2022-11-04T16:13:20.275Z,69.95
2022-11-04T16:16:15.781Z,69.45
2022-11-04T16:18:49.852Z,69.55
2022-11-04T16:21:35.869Z,69.54
2022-11-04T16:24:09.254Z,69.47
2022-11-04T16:26:42.076Z,69.87
2022-11-04T16:29:23.208Z,69.73
2022-11-04T16:32:24.248Z,69.76
2022-11-04T16:34:53.512Z,69.13
2022-11-04T16:37:20.054Z,69.56
2022-11-04T16:39:46.533Z,69.59
2022-11-04T16:42:15.610Z,69.18
2022-11-04T16:44:49.422Z,69.10
2022-11-04T16:47:18.474Z,69.18
2022-11-04T16:49:45.188Z,69.03
2022-11-04T16:52:20.620Z,68.84
2022-11-04T16:54:48.189Z,68.81
2022-11-04T16:57:15.651Z,69.16
2022-11-04T16:59:42.749Z,69.19
2022-11-04T17:02:37.817Z,70.50
2022-11-04T17:05:05.318Z,70.98
2022-11-04T17:07:51.533Z,70.90
2022-11-04T17:10:27.950Z,70.18
2022-11-04T17:12:54.537Z,70.51
2022-11-04T17:15:21.510Z,69.76
2022-11-04T17:17:48.041Z,69.34
2022-11-04T17:20:20.447Z,69.40
2022-11-04T17:22:48.753Z,70.67
2022-11-04T17:25:29.882Z,70.48
2022-11-04T17:27:56.381Z,70.55
2022-11-04T17:30:23.605Z,70.47
2022-11-04T17:32:50.866Z,69.79
2022-11-04T17:35:18.180Z,70.20
2022-11-04T17:37:45.116Z,70.24
2022-11-04T17:40:18.304Z,70.77
2022-11-04T17:43:10.392Z,70.75
2022-11-04T17:45:38.534Z,71.14
2022-11-04T17:48:05.558Z,71.09
2022-11-04T17:50:33.454Z,70.91
2022-11-04T17:53:00.235Z,70.79
2022-11-04T17:55:27.864Z,70.46
2022-11-04T17:57:55.188Z,70.88
2022-11-04T18:00:24.226Z,70.77
2022-11-04T18:02:50.900Z,70.43
2022-11-04T18:05:17.568Z,70.07
2022-11-04T18:07:44.002Z,70.20
2022-11-04T18:10:11.307Z,70.68
2022-11-04T18:12:37.873Z,70.76
2022-11-04T18:15:11.130Z,71.31
2022-11-04T18:17:44.238Z,71.42
2022-11-04T18:20:17.224Z,71.57
2022-11-04T18:22:44.534Z,71.81
2022-11-04T18:25:11.954Z,70.79
2022-11-04T18:27:38.407Z,71.23
2022-11-04T18:30:06.226Z,71.39
2022-11-04T18:32:32.845Z,71.63
2022-11-04T18:34:59.393Z,71.79
2022-11-04T18:37:26.145Z,71.76
2022-11-04T18:39:52.637Z,71.47
2022-11-04T18:42:19.089Z,70.67
2022-11-04T18:44:46.133Z,70.18
2022-11-04T18:47:14.070Z,70.38
2022-11-04T18:49:40.779Z,70.13
2022-11-04T18:52:07.281Z,69.88
2022-11-04T18:54:33.757Z,70.89
2022-11-04T18:57:00.253Z,70.30
2022-11-04T18:59:26.806Z,69.75
2022-11-04T19:01:53.527Z,69.70
2022-11-04T19:04:20.195Z,69.41
2022-11-04T19:06:47.165Z,69.39
2022-11-04T19:09:45.271Z,69.83
2022-11-04T19:12:21.730Z,70.17
2022-11-04T19:14:48.175Z,70.63
2022-11-04T19:17:14.901Z,70.85
2022-11-04T19:19:42.726Z,70.66
2022-11-04T19:22:10.195Z,70.94
2022-11-04T19:24:36.877Z,71.06
2022-11-04T19:27:04.363Z,71.27
2022-11-04T19:29:32.764Z,70.67
2022-11-04T19:32:00.467Z,70.64
2022-11-04T19:34:27.040Z,71.45
2022-11-04T19:36:53.511Z,71.15
2022-11-04T19:39:20.014Z,71.25
2022-11-04T19:42:04.940Z,70.77
2022-11-04T19:44:31.771Z,71.00
2022-11-04T19:46:58.268Z,70.93
2022-11-04T19:49:24.715Z,70.97
2022-11-04T19:51:51.140Z,71.36
2022-11-04T19:54:18.633Z,71.08
2022-11-04T19:56:45.384Z,71.82
2022-11-04T19:59:12.400Z,71.57
2022-11-04T20:01:39.933Z,71.34
2022-11-04T20:04:06.691Z,71.63
2022-11-04T20:06:33.479Z,71.78
2022-11-04T20:09:06.306Z,71.22
2022-11-04T20:11:58.338Z,71.26
2022-11-04T20:14:26.377Z,71.32
2022-11-04T20:16:53.166Z,71.70
2022-11-04T20:19:22.600Z,72.39
2022-11-04T20:21:49.844Z,72.69
2022-11-04T20:24:16.280Z,72.71
2022-11-04T20:26:44.004Z,72.39
2022-11-04T20:29:10.659Z,72.17
2022-11-04T20:31:39.463Z,71.54
2022-11-04T20:34:08.332Z,72.02
2022-11-04T20:36:36.580Z,71.74
2022-11-04T20:39:11.807Z,71.34
2022-11-04T20:41:38.424Z,71.45
2022-11-04T20:44:05.725Z,71.21
2022-11-04T20:46:34.602Z,71.38
2022-11-04T20:49:03.118Z,71.38
2022-11-04T20:51:37.090Z,71.25
2022-11-04T20:54:07.002Z,70.90
2022-11-04T20:56:38.260Z,71.01
2022-11-04T20:59:06.382Z,71.45
2022-11-04T21:01:36.723Z,71.26
2022-11-04T21:04:14.797Z,71.24
2022-11-04T21:06:41.940Z,71.00
2022-11-04T21:09:12.469Z,71.33
2022-11-04T21:11:39.787Z,71.71
2022-11-04T21:14:14.496Z,71.76
2022-11-04T21:16:41.207Z,72.39
2022-11-04T21:19:08.071Z,72.25
2022-11-04T21:21:35.426Z,71.45
2022-11-04T21:24:05.885Z,71.31
2022-11-04T21:26:35.740Z,71.65
2022-11-04T21:29:07.063Z,71.82
2022-11-04T21:31:36.365Z,72.02
2022-11-04T21:34:03.985Z,72.39
2022-11-04T21:36:31.353Z,72.47
2022-11-04T21:38:58.954Z,71.95
2022-11-04T21:41:29.260Z,71.64
2022-11-04T21:43:57.465Z,71.54
2022-11-04T21:46:27.375Z,71.96
2022-11-04T21:48:55.199Z,71.65
2022-11-04T21:51:25.329Z,71.60
2022-11-04T21:53:51.862Z,71.18
2022-11-04T21:56:24.982Z,70.95
2022-11-04T21:58:53.028Z,71.17
2022-11-04T22:01:24.634Z,71.45
2022-11-04T22:03:55.854Z,71.68
2022-11-04T22:06:22.834Z,71.84
2022-11-04T22:08:54.144Z,71.57
2022-11-04T22:11:25.381Z,71.11
2022-11-04T22:14:00.916Z,71.12
2022-11-04T22:16:31.784Z,71.50
2022-11-04T22:19:01.820Z,72.06
2022-11-04T22:21:30.161Z,72.25
2022-11-04T22:23:57.369Z,71.76
2022-11-04T22:26:28.399Z,71.45
2022-11-04T22:28:56.216Z,71.46
2022-11-04T22:31:30.353Z,71.34
2022-11-04T22:33:57.894Z,71.45
2022-11-04T22:36:24.365Z,71.40
2022-11-04T22:38:51.053Z,71.88
2022-11-04T22:41:30.467Z,71.70
2022-11-04T22:43:57.905Z,72.23
2022-11-04T22:46:31.945Z,72.52
2022-11-04T22:49:01.448Z,72.83
2022-11-04T22:51:29.044Z,72.46
2022-11-04T22:53:59.996Z,72.28
2022-11-04T22:56:30.065Z,72.88
2022-11-04T22:58:56.509Z,72.37
2022-11-04T23:01:23.113Z,72.17
2022-11-04T23:03:53.245Z,72.29
2022-11-04T23:06:20.162Z,72.29
2022-11-04T23:08:46.683Z,72.70
2022-11-04T23:11:39.465Z,72.26
2022-11-04T23:14:25.118Z,72.02
2022-11-04T23:17:10.866Z,72.29
2022-11-04T23:19:38.891Z,72.72
2022-11-04T23:22:24.871Z,72.79
2022-11-04T23:25:06.647Z,72.80
2022-11-04T23:28:01.679Z,72.58
2022-11-04T23:30:32.055Z,72.86
2022-11-04T23:33:02.891Z,72.63
2022-11-04T23:35:57.331Z,73.10
2022-11-04T23:38:25.461Z,73.08
2022-11-04T23:41:15.452Z,72.58
2022-11-04T23:43:41.950Z,72.38
2022-11-04T23:46:27.458Z,72.46
2022-11-04T23:49:26.125Z,72.60
2022-11-04T23:52:11.407Z,72.78
2022-11-04T23:54:56.577Z,72.44
2022-11-04T23:57:41.843Z,72.67
